Jackson, WI

11:45 PM CDT on May 03, 2015 (GMT -0500)
Timmerman | | Change Station
CLOSE
Current Station
Airport
Location: Milwaukee Timmerman,
Elevation: 745 ft
Nearby Weather Stations

Elev 745 ft 43.11 °N, 88.03 °W | Updated 10 minutes ago

Mostly Cloudy
Mostly Cloudy
63 °F
Feels Like 63 °F
N
6
Wind Variable Wind from South

Today
High -- | Low -- °F
--% Chance of Precip.
Yesterday
High -- | Low -- °F
Precip. -- in
5:43 AM 7:56 PM
Full, 100% visible
Pressure 29.88 in
Visibility 10.0 miles
Clouds Scattered Clouds 6000 ft
Scattered Clouds 8000 ft
Mostly Cloudy 10000 ft
Dew Point 52 °F
Humidity 68%
Rainfall 0.00 in
Snow Depth Not available.
UV 0 out of 12
Pollen 8.80 out of 12
Air Quality Not available.
Flu Activity Local Activity
METAR KMWC 040435Z AUTO 19005KT 10SM SCT060 SCT080 BKN100 17/11 A2988 RMK AO2

More Conditions Fewer Conditions

Pressure 29.88 in
Visibility 10.0 miles
Clouds Scattered Clouds 6000 ft
Scattered Clouds 8000 ft
Mostly Cloudy 10000 ft
Dew Point 52 °F
Humidity 68%
Rainfall 0.00 in
Snow Depth Not available.
UV 0 out of 12
Pollen 8.80 out of 12
Air Quality Not available.
Flu Activity Local Activity
METAR KMWC 040435Z AUTO 19005KT 10SM SCT060 SCT080 BKN100 17/11 A2988 RMK AO2

More Conditions Fewer Conditions

Nepal has a long way to go to dig out and rebuild from a devastating earthquake. We have teamed up with several charities and organizations to make contributing to the relief effort as easy as possible.
How you can help: Portlight Strategies | Red Cross
Nowcast | as of 11:02 PM CDT on May 3, 2015

Scattered thunderstorms will continue to develop across south central Wisconsin through 1 am CDT. In addition...a line of thunderstorms was moving into south central Wisconsin from the west. These thunderstorms may produce hail to one half inch and wind gusts to 40 mph as they spread across the area overnight. In addition...brief heavy rainfall will be possible.

×

10-Day Weather Forecast

Almanac

Astronomy

May. 03, 2015 Rise Set
Actual Time
Civil Twilight
Nautical Twilight
Astronomical Twilight
Moon
Length of Visible Light
Length of Day
Tomorrow will be .
, % of the Moon is Illuminated

Today's Extremes

State Highs State Lows

Community

WunderPhotos

Upload Photos

1,818,524 photos uploaded!

WunderBlogs® & News

Nearby

Air Quality

  Air Quality AQ Index Pollutant
Not available.

Snow Depth

Station Depth Elevation

Earthquake Activity

City Distance Mag. Time & Date
Minimum magnitude displayed is 2.5.

Coastal Water Temperatures

Place Temperature

Stations

Nearby Weather Stations

Station Location Temp. Windchill Dew Point Humidity Wind Precip. Elev Updated Type